Time;durP1;ratioP1;P1;durP2;ratioP2;P2;SDS_P1;SDS_P2;PMS_P1;PMS_P2;Temp;Humidity;BMP_temperature;BMP_pressure;BME280_temperature;BME280_humidity;BME280_pressure;Samples;Min_cycle;Max_cycle;Signal;HPM_P1;HPM_P2
2022/05/17 00:02:12;;;;;;;5.60;3.20;;;;;;;19.70;56.80;97911.03;5062817;28;20195;-71
2022/05/17 00:04:38;;;;;;;9.87;4.10;;;;;;;19.67;56.50;97916.75;5070787;28;20603;-72
2022/05/17 00:07:05;;;;;;;9.87;3.70;;;;;;;19.64;56.41;97915.28;5070599;28;20202;-71
2022/05/17 00:09:32;;;;;;;4.90;3.70;;;;;;;19.56;56.82;97923.44;5069595;28;20187;-70
2022/05/17 00:11:57;;;;;;;5.40;3.70;;;;;;;19.57;57.07;97919.75;5062172;28;20429;-71
2022/05/17 00:14:23;;;;;;;4.13;3.50;;;;;;;19.49;57.06;97918.06;5069285;28;20427;-71
2022/05/17 00:16:49;;;;;;;6.83;3.63;;;;;;;19.40;57.56;97913.06;5069483;28;20210;-70
2022/05/17 00:19:19;;;;;;;17.63;4.03;;;;;;;19.39;57.43;97922.03;5069436;28;20210;-71
2022/05/17 00:21:45;;;;;;;4.73;3.17;;;;;;;19.32;57.60;97927.31;5047686;28;20194;-71
2022/05/17 00:24:10;;;;;;;7.93;3.20;;;;;;;19.33;57.28;97924.47;5067172;28;20433;-71
2022/05/17 00:26:36;;;;;;;4.73;3.40;;;;;;;19.31;57.16;97920.34;5066363;28;20456;-71
2022/05/17 00:29:03;;;;;;;4.90;3.30;;;;;;;19.32;57.18;97916.66;5064597;28;20224;-71
2022/05/17 00:31:28;;;;;;;4.40;3.37;;;;;;;19.32;56.83;97921.97;5066256;28;20663;-70
2022/05/17 00:33:54;;;;;;;5.20;3.40;;;;;;;19.32;57.31;97924.66;5066967;28;20429;-70
2022/05/17 00:36:20;;;;;;;4.83;3.67;;;;;;;19.37;57.05;97919.59;5067832;28;20236;-71
2022/05/17 00:38:45;;;;;;;7.10;3.40;;;;;;;19.29;57.53;97919.69;5059050;28;20220;-70
2022/05/17 00:41:11;;;;;;;5.90;3.07;;;;;;;19.30;57.36;97916.03;5065455;28;20504;-71
2022/05/17 00:46:27;;;;;;;7.63;3.40;;;;;;;19.25;57.11;97918.47;5068847;28;20277;-70
2022/05/17 00:48:53;;;;;;;5.60;3.30;;;;;;;19.19;57.41;97912.88;5069822;28;20428;-71
2022/05/17 00:51:21;;;;;;;6.33;3.93;;;;;;;19.11;57.66;97917.50;5069337;28;20823;-70
2022/05/17 00:53:46;;;;;;;7.67;3.57;;;;;;;19.10;57.38;97919.34;5069326;28;20428;-70
2022/05/17 00:56:15;;;;;;;4.10;3.03;;;;;;;19.09;57.63;97915.03;5068924;28;20455;-71
2022/05/17 00:58:46;;;;;;;3.07;2.70;;;;;;;18.98;57.50;97919.00;5062518;28;20327;-71
2022/05/17 01:01:19;;;;;;;4.27;3.77;;;;;;;19.03;57.43;97918.44;5067751;28;20935;-71
2022/05/17 01:03:56;;;;;;;6.37;3.70;;;;;;;18.96;57.72;97913.09;5068594;28;20436;-71
2022/05/17 01:06:23;;;;;;;7.23;3.20;;;;;;;19.01;57.37;97907.22;5073756;28;20432;-71
2022/05/17 01:08:49;;;;;;;10.70;3.37;;;;;;;18.93;57.68;97908.13;5070200;28;20507;-72
2022/05/17 01:11:14;;;;;;;5.37;3.30;;;;;;;18.96;57.61;97901.63;5072311;28;20503;-71
2022/05/17 01:16:25;;;;;;;8.43;3.33;;;;;;;18.94;57.85;97907.13;5072304;28;20441;-71
2022/05/17 01:18:51;;;;;;;5.90;3.90;;;;;;;18.99;57.62;97904.72;5073973;28;20466;-72
2022/05/17 01:21:16;;;;;;;7.13;3.80;;;;;;;18.96;57.83;97904.28;5073923;28;20190;-72
2022/05/17 01:23:42;;;;;;;4.50;3.40;;;;;;;18.92;57.73;97895.00;5056578;28;20802;-71
2022/05/17 01:26:11;;;;;;;3.80;3.20;;;;;;;18.80;57.92;97902.66;5073230;28;20202;-72
2022/05/17 01:28:37;;;;;;;8.30;3.33;;;;;;;18.76;57.67;97899.56;5068355;28;20610;-71
2022/05/17 01:31:07;;;;;;;8.93;3.67;;;;;;;18.75;57.80;97902.41;5072839;28;20437;-71
2022/05/17 01:33:35;;;;;;;4.97;3.10;;;;;;;18.71;57.97;97899.31;5066301;28;20601;-73
2022/05/17 01:36:02;;;;;;;11.20;3.30;;;;;;;18.74;57.82;97893.63;5067819;28;20509;-72
2022/05/17 01:38:28;;;;;;;4.80;3.10;;;;;;;18.74;57.85;97898.94;5062903;28;20479;-71
2022/05/17 01:40:53;;;;;;;3.07;2.57;;;;;;;18.75;58.13;97895.28;5073461;28;20441;-72
2022/05/17 01:43:19;;;;;;;3.67;3.30;;;;;;;18.72;58.03;97896.44;5069363;28;20191;-72
2022/05/17 01:45:45;;;;;;;4.00;3.10;;;;;;;18.69;58.41;97896.00;5067601;28;20238;-69
2022/05/17 01:48:10;;;;;;;7.67;3.43;;;;;;;18.72;58.32;97903.59;5072789;28;20191;-71
2022/05/17 01:50:36;;;;;;;7.03;3.43;;;;;;;18.70;58.39;97897.66;5065209;28;20190;-71
2022/05/17 01:53:03;;;;;;;5.27;3.37;;;;;;;18.72;58.48;97898.28;5064766;28;20183;-71
2022/05/17 01:55:28;;;;;;;5.30;3.20;;;;;;;18.75;58.19;97902.41;5069571;28;20797;-71
2022/05/17 01:57:54;;;;;;;8.23;4.50;;;;;;;18.70;58.28;97903.81;5054421;28;20495;-72
2022/05/17 02:00:21;;;;;;;6.37;3.60;;;;;;;18.62;58.66;97901.25;5069496;28;20261;-71
2022/05/17 02:02:46;;;;;;;8.43;3.63;;;;;;;18.65;58.80;97897.41;5063469;28;20186;-71
2022/05/17 02:05:12;;;;;;;8.60;3.30;;;;;;;18.71;58.41;97894.78;5072567;28;20555;-71
2022/05/17 02:07:37;;;;;;;5.33;3.67;;;;;;;18.74;58.29;97890.97;5056887;28;20236;-72
2022/05/17 02:10:04;;;;;;;5.53;3.37;;;;;;;18.74;58.45;97890.97;5064197;28;20182;-71
2022/05/17 02:12:30;;;;;;;4.13;2.60;;;;;;;18.79;58.29;97891.22;5072654;28;20189;-72
2022/05/17 02:14:55;;;;;;;7.37;3.43;;;;;;;18.82;58.39;97901.47;5072960;28;20820;-71
2022/05/17 02:17:22;;;;;;;4.43;3.50;;;;;;;18.79;58.09;97891.22;5072292;28;20182;-72
2022/05/17 02:19:47;;;;;;;6.77;3.67;;;;;;;18.75;57.75;97895.28;5071411;28;20210;-72
2022/05/17 02:22:13;;;;;;;4.53;3.03;;;;;;;18.65;58.42;97894.75;5072023;28;20453;-72
2022/05/17 02:24:38;;;;;;;9.27;3.20;;;;;;;18.66;58.70;97885.75;5072815;28;20186;-71
2022/05/17 02:27:04;;;;;;;3.80;3.40;;;;;;;18.66;58.79;97885.75;5065411;28;20206;-71
2022/05/17 02:29:30;;;;;;;4.10;3.70;;;;;;;18.61;58.77;97894.28;5072466;28;20649;-71
2022/05/17 02:31:56;;;;;;;4.70;3.57;;;;;;;18.66;58.53;97891.06;5071940;28;20187;-72
2022/05/17 02:34:22;;;;;;;4.60;3.40;;;;;;;18.72;58.39;97896.44;5072221;28;20431;-72
2022/05/17 02:36:47;;;;;;;6.17;3.27;;;;;;;18.67;58.50;97901.50;5066081;28;20872;-71
2022/05/17 02:39:13;;;;;;;4.30;3.10;;;;;;;18.71;58.51;97907.25;5069030;28;20243;-72
2022/05/17 02:41:38;;;;;;;3.53;3.10;;;;;;;18.74;58.36;97898.94;5068453;28;20186;-71
2022/05/17 02:44:04;;;;;;;7.50;3.60;;;;;;;18.56;58.17;97897.50;5071493;28;20190;-71
2022/05/17 02:46:30;;;;;;;7.60;2.93;;;;;;;18.57;58.62;97904.47;5063816;28;20582;-71
2022/05/17 02:48:56;;;;;;;4.80;3.87;;;;;;;18.54;58.46;97906.66;5072159;28;20196;-71
2022/05/17 02:51:21;;;;;;;4.60;3.63;;;;;;;18.48;58.80;97908.25;5071579;28;21018;-71
2022/05/17 02:53:47;;;;;;;5.10;3.53;;;;;;;18.44;58.69;97898.19;5071982;28;20183;-71
2022/05/17 02:56:13;;;;;;;9.97;3.73;;;;;;;18.33;59.09;97907.44;5071684;28;20241;-72
2022/05/17 02:58:38;;;;;;;7.30;3.50;;;;;;;18.34;58.88;97906.44;5064882;28;20202;-72
2022/05/17 03:01:05;;;;;;;4.60;3.57;;;;;;;18.36;58.58;97912.38;5068494;28;20247;-72
2022/05/17 03:03:31;;;;;;;6.43;3.40;;;;;;;18.35;58.68;97913.38;5071716;28;20236;-72
2022/05/17 03:05:56;;;;;;;4.67;3.40;;;;;;;18.24;58.86;97925.28;5069732;28;21002;-71
2022/05/17 03:08:22;;;;;;;4.83;3.60;;;;;;;18.15;58.99;97916.56;5071183;28;20633;-71
2022/05/17 03:10:48;;;;;;;4.70;3.70;;;;;;;18.15;58.58;97921.88;5071603;28;20213;-72
2022/05/17 03:13:14;;;;;;;5.70;3.60;;;;;;;18.19;58.61;97928.47;5071663;28;20190;-72
2022/05/17 03:15:40;;;;;;;6.83;3.90;;;;;;;18.22;58.71;97928.13;5072024;28;20229;-72
2022/05/17 03:18:06;;;;;;;3.67;3.37;;;;;;;18.20;58.65;97930.13;5070791;28;20464;-72
2022/05/17 03:20:31;;;;;;;6.23;3.63;;;;;;;18.18;58.47;97926.81;5063273;28;20456;-72
2022/05/17 03:22:57;;;;;;;5.07;4.00;;;;;;;18.10;59.00;97935.69;5071504;28;20190;-72
2022/05/17 03:25:23;;;;;;;8.67;3.67;;;;;;;18.10;59.19;97934.88;5069538;28;20213;-71
2022/05/17 03:27:49;;;;;;;4.53;4.13;;;;;;;18.03;59.22;97933.97;5061426;28;20700;-71
2022/05/17 03:30:15;;;;;;;7.20;3.87;;;;;;;18.03;59.63;97929.50;5071314;28;20425;-71
2022/05/17 03:32:41;;;;;;;7.37;3.80;;;;;;;18.06;59.38;97938.91;5052613;28;20440;-71
2022/05/17 03:35:07;;;;;;;7.03;4.10;;;;;;;18.03;59.31;97933.97;5042788;28;20598;-72
2022/05/17 03:37:32;;;;;;;4.70;3.87;;;;;;;18.03;59.13;97941.91;5055781;28;20301;-72
2022/05/17 03:39:58;;;;;;;5.73;4.47;;;;;;;17.92;59.23;97943.16;5059740;28;20552;-71
2022/05/17 03:42:23;;;;;;;7.20;4.80;;;;;;;17.89;59.37;97944.38;5061914;28;20760;-71
2022/05/17 03:44:49;;;;;;;6.20;4.40;;;;;;;17.98;59.26;97946.97;5058456;28;20194;-72
2022/05/17 03:47:14;;;;;;;6.00;4.50;;;;;;;17.95;59.12;97935.66;5060332;28;20210;-71
2022/05/17 03:49:40;;;;;;;7.23;4.43;;;;;;;17.83;59.31;97950.38;5050736;28;20678;-71
2022/05/17 03:52:06;;;;;;;5.67;4.27;;;;;;;17.75;59.31;97953.94;5048620;28;20194;-71
2022/05/17 03:54:32;;;;;;;7.60;5.00;;;;;;;17.84;59.33;97953.84;5053632;28;20186;-71
2022/05/17 03:56:58;;;;;;;5.43;4.00;;;;;;;17.80;59.09;97954.22;5062205;28;20555;-72
2022/05/17 03:59:23;;;;;;;8.20;4.27;;;;;;;17.83;59.32;97954.88;5054798;28;20490;-71
2022/05/17 04:01:49;;;;;;;11.40;5.20;;;;;;;17.85;59.29;97958.97;5062311;28;20194;-72
2022/05/17 04:04:15;;;;;;;7.97;5.20;;;;;;;17.88;59.14;97963.94;5058208;28;20599;-71
2022/05/17 04:06:40;;;;;;;8.17;5.07;;;;;;;17.88;59.41;97963.09;5042138;28;20207;-70
2022/05/17 04:09:06;;;;;;;6.30;4.40;;;;;;;17.88;59.39;97969.22;5053710;28;20183;-70
2022/05/17 04:11:35;;;;;;;6.70;4.60;;;;;;;17.94;59.29;97962.38;5049669;28;20201;-71
2022/05/17 04:14:01;;;;;;;8.93;4.60;;;;;;;18.01;59.82;97973.13;5050631;28;20230;-73
2022/05/17 04:16:31;;;;;;;12.67;8.07;;;;;;;18.03;59.68;97963.13;5045452;28;20455;-73
2022/05/17 04:18:56;;;;;;;13.40;9.40;;;;;;;18.03;59.85;97971.94;5062081;28;20464;-72
2022/05/17 04:21:22;;;;;;;9.33;6.00;;;;;;;18.01;59.81;97973.13;5053490;28;20957;-72
2022/05/17 04:23:47;;;;;;;8.23;5.10;;;;;;;17.99;59.53;97975.94;5070443;28;20741;-71
2022/05/17 04:26:14;;;;;;;11.80;4.40;;;;;;;17.98;59.70;97973.47;5049949;28;20642;-71
2022/05/17 04:28:40;;;;;;;6.83;5.07;;;;;;;18.04;59.61;97970.09;5046486;28;20205;-73
2022/05/17 04:31:05;;;;;;;19.90;5.10;;;;;;;18.07;59.83;97977.69;5058407;28;20428;-72
2022/05/17 04:33:30;;;;;;;8.73;4.80;;;;;;;18.11;59.78;97987.75;5054142;28;20186;-71
2022/05/17 04:35:56;;;;;;;9.90;4.70;;;;;;;18.16;59.77;97992.50;5044376;28;20253;-72
2022/05/17 04:38:22;;;;;;;6.30;4.70;;;;;;;18.13;60.29;97989.41;5060498;28;20215;-71
2022/05/17 04:40:48;;;;;;;7.20;5.00;;;;;;;18.04;60.13;97996.59;5053927;28;20193;-71
2022/05/17 04:43:13;;;;;;;9.50;5.40;;;;;;;18.02;60.45;97990.69;5061318;28;20192;-71
2022/05/17 04:45:41;;;;;;;8.03;5.07;;;;;;;17.93;60.94;97998.66;5052585;28;20465;-72
2022/05/17 04:48:07;;;;;;;9.70;4.70;;;;;;;18.04;61.11;97999.25;5053853;28;20183;-72
2022/05/17 04:50:33;;;;;;;8.07;5.43;;;;;;;18.13;60.64;98000.00;5060776;28;21011;-71
2022/05/17 04:52:59;;;;;;;8.30;5.03;;;;;;;18.11;61.16;97992.25;5068556;28;20197;-71
2022/05/17 04:55:25;;;;;;;5.13;4.63;;;;;;;18.17;60.96;98004.75;5053222;28;20727;-71
2022/05/17 04:57:50;;;;;;;7.73;4.90;;;;;;;18.24;60.71;97995.09;5051626;28;20430;-72
2022/05/17 05:00:21;;;;;;;8.10;4.30;;;;;;;18.22;60.75;97997.09;5052058;28;20194;-71
2022/05/17 05:02:46;;;;;;;5.10;4.30;;;;;;;18.33;60.88;98000.28;5067863;28;20327;-70
2022/05/17 05:05:13;;;;;;;10.27;4.37;;;;;;;18.42;60.63;97992.06;5067722;28;20433;-71
2022/05/17 05:07:38;;;;;;;5.63;4.87;;;;;;;18.50;60.57;97998.28;5052286;28;20560;-71
2022/05/17 05:10:04;;;;;;;9.90;4.77;;;;;;;18.56;60.28;97998.38;5050375;28;20425;-70
2022/05/17 05:12:31;;;;;;;4.90;4.37;;;;;;;18.54;60.49;97997.72;5073193;28;20193;-71
2022/05/17 05:14:57;;;;;;;7.67;5.53;;;;;;;18.57;60.60;98004.50;5073275;28;20425;-72
2022/05/17 05:17:22;;;;;;;4.87;4.37;;;;;;;18.60;61.16;97998.00;5056983;28;20437;-70
2022/05/17 05:19:48;;;;;;;6.50;4.83;;;;;;;18.73;60.54;98003.47;5053295;28;20461;-71
2022/05/17 05:22:13;;;;;;;5.60;4.30;;;;;;;18.74;60.90;97994.50;5052436;28;20329;-70
2022/05/17 05:24:39;;;;;;;11.93;4.77;;;;;;;18.90;60.71;98004.09;5061399;28;20183;-71
2022/05/17 05:27:05;;;;;;;9.53;6.20;;;;;;;19.00;60.10;98006.50;5056000;28;20281;-71
2022/05/17 05:29:30;;;;;;;5.17;4.73;;;;;;;19.03;60.44;98000.78;5065676;28;20182;-71
2022/05/17 05:31:55;;;;;;;11.20;4.80;;;;;;;19.09;60.47;98005.38;5064420;28;20425;-72
2022/05/17 05:34:21;;;;;;;7.53;4.83;;;;;;;19.19;60.29;98007.72;5055871;28;20240;-71
2022/05/17 05:36:48;;;;;;;7.60;4.53;;;;;;;19.36;60.07;98004.81;5049809;28;20246;-73
2022/05/17 05:39:15;;;;;;;7.57;4.67;;;;;;;19.52;60.00;98011.72;5034760;28;20838;-73
2022/05/17 05:41:41;;;;;;;5.63;4.80;;;;;;;19.65;59.26;98006.53;5054274;28;20532;-73
2022/05/17 05:44:06;;;;;;;9.80;5.30;;;;;;;19.76;59.24;98018.47;5051678;28;20512;-72
2022/05/17 05:46:32;;;;;;;5.60;4.40;;;;;;;19.92;59.09;98020.06;5052200;28;20260;-71
2022/05/17 05:48:57;;;;;;;6.87;5.17;;;;;;;20.05;58.98;98014.03;5052372;28;20190;-73
2022/05/17 05:51:24;;;;;;;10.07;5.40;;;;;;;20.12;57.54;98011.41;5052527;28;20191;-72
2022/05/17 05:53:50;;;;;;;10.40;5.77;;;;;;;20.22;56.97;98012.72;5053067;28;20458;-71
2022/05/17 05:56:16;;;;;;;7.33;4.97;;;;;;;20.37;56.93;98012.59;5052487;28;20533;-72
2022/05/17 05:58:42;;;;;;;7.20;4.83;;;;;;;20.49;57.07;98020.03;5046102;28;20208;-72
2022/05/17 06:01:09;;;;;;;8.83;5.13;;;;;;;20.58;56.47;98010.06;5038720;28;20179;-71
2022/05/17 06:03:35;;;;;;;7.73;4.57;;;;;;;20.76;56.94;98010.38;5046802;28;20483;-71
2022/05/17 06:06:01;;;;;;;7.60;5.07;;;;;;;20.94;56.74;98012.47;5051753;28;20853;-71
2022/05/17 06:08:27;;;;;;;8.50;4.90;;;;;;;21.11;56.33;98017.47;5051976;28;20839;-73
2022/05/17 06:10:53;;;;;;;7.27;4.43;;;;;;;21.31;56.30;98025.53;5052333;28;20465;-71
2022/05/17 06:13:20;;;;;;;14.67;10.17;;;;;;;21.46;56.10;98023.50;5050591;28;20268;-72
2022/05/17 06:15:46;;;;;;;14.03;7.43;;;;;;;21.62;55.79;98019.66;5052085;28;20895;-72
2022/05/17 06:18:13;;;;;;;8.20;6.03;;;;;;;21.75;54.85;98026.03;5050517;28;20465;-73
2022/05/17 06:20:39;;;;;;;5.53;4.60;;;;;;;21.86;53.97;98029.94;5050933;28;20794;-73
2022/05/17 06:23:05;;;;;;;6.20;5.27;;;;;;;21.97;53.85;98028.47;5045100;28;20441;-71
2022/05/17 06:25:32;;;;;;;11.10;6.87;;;;;;;22.13;54.09;98014.72;5041277;28;20993;-72
2022/05/17 06:27:58;;;;;;;6.80;6.00;;;;;;;22.28;53.92;98014.50;5051781;28;20920;-71
2022/05/17 06:30:24;;;;;;;7.10;5.17;;;;;;;22.39;53.30;98010.38;5051801;28;20461;-71
2022/05/17 06:32:49;;;;;;;9.03;6.63;;;;;;;22.55;53.17;98015.31;5059826;28;20468;-72
2022/05/17 06:35:15;;;;;;;14.43;7.27;;;;;;;22.73;53.07;98018.31;5048558;28;20198;-71
2022/05/17 06:37:42;;;;;;;8.70;6.00;;;;;;;22.84;52.15;98021.13;5051450;28;20290;-71
2022/05/17 06:40:08;;;;;;;8.93;5.23;;;;;;;22.95;51.98;98011.66;5055040;28;20663;-70
2022/05/17 06:42:34;;;;;;;8.73;4.70;;;;;;;23.13;52.13;98020.78;5052194;28;20461;-71
2022/05/17 06:44:59;;;;;;;12.10;5.70;;;;;;;23.11;50.60;98018.34;5052172;28;20863;-71
2022/05/17 06:47:26;;;;;;;9.93;5.50;;;;;;;23.27;50.68;98024.28;5040267;28;20184;-71
2022/05/17 06:49:51;;;;;;;8.17;5.33;;;;;;;23.34;50.38;98025.03;5047016;28;20182;-72
2022/05/17 06:52:17;;;;;;;11.73;5.67;;;;;;;23.42;50.15;98023.97;5052199;28;20464;-72
2022/05/17 06:54:43;;;;;;;10.73;5.80;;;;;;;23.54;49.98;98016.09;5050486;28;20187;-72
2022/05/17 06:57:11;;;;;;;10.77;5.97;;;;;;;23.63;49.31;98020.13;5049846;28;20222;-71
2022/05/17 06:59:39;;;;;;;8.10;4.93;;;;;;;23.76;49.66;98024.53;5050661;28;20203;-71
2022/05/17 07:02:05;;;;;;;10.70;5.60;;;;;;;23.91;49.46;98027.72;5054674;28;20523;-72
2022/05/17 07:04:31;;;;;;;6.30;5.30;;;;;;;24.05;49.25;98025.78;5041203;28;20425;-71
2022/05/17 07:06:58;;;;;;;9.20;5.20;;;;;;;24.19;48.80;98026.47;5045904;28;20457;-71
2022/05/17 07:09:25;;;;;;;12.13;4.90;;;;;;;24.00;48.84;98028.31;5051129;28;20418;-71
2022/05/17 07:14:37;;;;;;;6.13;5.43;;;;;;;24.28;48.60;98032.38;5051381;28;20943;-70
2022/05/17 07:17:04;;;;;;;8.10;5.27;;;;;;;24.38;48.23;98037.25;5049152;28;20466;-70
2022/05/17 07:19:33;;;;;;;7.60;5.23;;;;;;;24.46;47.88;98033.44;5050726;28;20932;-70
2022/05/17 07:22:03;;;;;;;10.23;5.60;;;;;;;24.49;47.89;98038.34;5050945;28;20472;-70
2022/05/17 07:24:29;;;;;;;10.27;5.20;;;;;;;24.60;47.61;98036.81;5048938;28;20850;-71
2022/05/17 07:26:54;;;;;;;7.97;5.40;;;;;;;24.76;47.30;98040.75;5050630;28;20524;-70
2022/05/17 07:29:20;;;;;;;6.20;5.30;;;;;;;24.87;47.08;98042.69;5050710;28;20807;-71
2022/05/17 07:31:45;;;;;;;8.83;5.63;;;;;;;24.93;46.82;98040.97;5056673;28;20765;-70
2022/05/17 07:34:11;;;;;;;14.40;6.17;;;;;;;25.01;46.99;98038.00;5052248;28;20256;-70
2022/05/17 07:36:36;;;;;;;10.90;5.93;;;;;;;25.02;46.37;98038.81;5053955;28;20226;-70
2022/05/17 07:39:02;;;;;;;7.47;5.07;;;;;;;25.10;46.52;98031.28;5050526;28;20210;-70
2022/05/17 07:41:27;;;;;;;10.80;5.97;;;;;;;25.25;46.37;98030.88;5051507;28;20195;-71
2022/05/17 07:43:53;;;;;;;8.97;5.43;;;;;;;25.37;45.85;98035.44;5050767;28;20186;-70
2022/05/17 07:46:18;;;;;;;8.43;5.83;;;;;;;25.44;46.03;98036.22;5050214;28;20203;-71
2022/05/17 07:48:44;;;;;;;18.83;5.97;;;;;;;25.54;45.39;98032.97;5050433;28;20605;-70
2022/05/17 07:51:09;;;;;;;9.20;4.90;;;;;;;25.66;45.46;98035.69;5050555;28;20189;-71
2022/05/17 07:53:36;;;;;;;9.23;5.80;;;;;;;25.72;44.59;98034.75;5050713;28;20179;-70
2022/05/17 07:56:03;;;;;;;11.20;5.23;;;;;;;25.73;43.78;98025.66;5050495;28;20199;-71
2022/05/17 07:58:28;;;;;;;8.43;5.33;;;;;;;25.81;44.10;98030.72;5050294;28;20567;-71
2022/05/17 08:00:54;;;;;;;6.03;4.67;;;;;;;25.97;43.61;98031.88;5050410;28;20509;-71
2022/05/17 08:03:19;;;;;;;9.03;4.97;;;;;;;26.02;43.93;98036.56;5058240;28;20253;-70
2022/05/17 08:05:45;;;;;;;8.90;4.53;;;;;;;26.14;43.95;98031.22;5050264;28;20207;-71
2022/05/17 08:08:11;;;;;;;10.30;5.20;;;;;;;26.20;42.24;98025.75;5050191;28;20178;-71
2022/05/17 08:10:37;;;;;;;6.40;4.60;;;;;;;26.31;42.57;98031.34;5051732;28;20206;-70
2022/05/17 08:13:03;;;;;;;7.80;4.20;;;;;;;26.17;41.73;98036.13;5054383;28;20494;-72
2022/05/17 08:15:30;;;;;;;6.33;4.50;;;;;;;26.29;41.67;98031.56;5054389;28;20453;-71
2022/05/17 08:17:57;;;;;;;9.00;4.23;;;;;;;26.46;41.42;98033.53;5054328;28;20198;-71
2022/05/17 08:20:22;;;;;;;6.97;4.20;;;;;;;26.52;40.81;98028.03;5054054;28;20713;-70
2022/05/17 08:22:48;;;;;;;6.90;4.43;;;;;;;26.52;40.16;98025.34;5054405;28;20426;-71
2022/05/17 08:28:04;;;;;;;5.43;3.70;;;;;;;26.79;40.60;98019.50;5053516;28;20650;-70
2022/05/17 08:30:31;;;;;;;7.97;4.83;;;;;;;26.96;40.12;98024.94;5054154;28;20440;-71
2022/05/17 08:33:17;;;;;;;8.20;3.93;;;;;;;26.82;38.57;98024.41;5060523;28;20185;-71
2022/05/17 08:35:53;;;;;;;6.50;4.13;;;;;;;27.07;38.23;98027.81;5051549;28;20461;-70
2022/05/17 08:38:23;;;;;;;7.80;4.33;;;;;;;27.16;37.50;98020.19;5060362;28;20490;-70
2022/05/17 08:41:05;;;;;;;17.10;4.50;;;;;;;27.24;37.53;98017.09;5054903;28;20833;-70
2022/05/17 08:44:07;;;;;;;6.40;4.27;;;;;;;27.50;38.00;98015.72;5046375;28;20864;-70
2022/05/17 08:46:54;;;;;;;12.03;4.80;;;;;;;27.63;37.20;98019.97;5044909;28;20471;-71
2022/05/17 08:49:24;;;;;;;8.07;4.63;;;;;;;27.71;37.35;98010.69;5053607;28;20428;-71
2022/05/17 08:51:55;;;;;;;6.10;3.27;;;;;;;27.81;37.20;98010.03;5053814;28;20465;-71
2022/05/17 08:54:26;;;;;;;4.63;3.27;;;;;;;27.80;36.24;98009.19;5053421;28;20447;-70
2022/05/17 08:57:04;;;;;;;6.20;2.97;;;;;;;27.95;35.87;98008.66;5052227;28;20449;-71
2022/05/17 08:59:33;;;;;;;6.27;2.90;;;;;;;28.04;36.32;98003.63;5053327;28;20518;-71
2022/05/17 09:02:05;;;;;;;6.20;4.10;;;;;;;27.99;36.26;98006.28;5060157;28;20520;-71
2022/05/17 09:05:09;;;;;;;7.63;5.23;;;;;;;28.24;35.68;98008.53;5044633;28;20521;-71
2022/05/17 09:07:48;;;;;;;4.63;3.33;;;;;;;28.24;35.26;98008.53;5051301;28;20491;-70
2022/05/17 09:10:20;;;;;;;4.37;3.40;;;;;;;27.92;37.17;98002.91;5052098;28;20429;-70
2022/05/17 09:12:51;;;;;;;6.23;2.90;;;;;;;28.14;35.82;98003.00;5053777;28;20461;-71
2022/05/17 09:15:17;;;;;;;4.80;3.07;;;;;;;28.35;35.93;98009.50;5051896;28;20429;-70
2022/05/17 09:17:43;;;;;;;5.17;3.90;;;;;;;28.49;36.15;98005.38;5053170;28;20445;-70
2022/05/17 09:20:13;;;;;;;6.80;3.33;;;;;;;28.60;35.86;98000.94;5052922;28;20507;-72
2022/05/17 09:22:38;;;;;;;6.60;4.40;;;;;;;28.67;35.71;97998.03;5054239;28;20496;-71
2022/05/17 09:25:47;;;;;;;3.83;3.10;;;;;;;28.59;35.38;97993.09;5054656;28;20421;-71
2022/05/17 09:28:18;;;;;;;5.57;3.13;;;;;;;28.63;35.25;97996.94;5051701;28;20285;-71
2022/05/17 09:30:44;;;;;;;5.87;3.43;;;;;;;28.28;34.83;97993.50;5050874;28;20533;-72
2022/05/17 09:33:14;;;;;;;5.40;3.63;;;;;;;28.51;34.97;97997.88;5057388;28;21002;-71
2022/05/17 09:35:44;;;;;;;14.10;6.70;;;;;;;28.74;35.20;98005.97;5056732;28;20221;-72
2022/05/17 09:38:10;;;;;;;7.33;4.07;;;;;;;28.98;35.41;97995.75;5051281;28;20535;-71
2022/05/17 09:40:38;;;;;;;7.73;3.73;;;;;;;29.13;34.71;97984.28;5053149;28;20520;-71
2022/05/17 09:43:06;;;;;;;6.70;3.53;;;;;;;29.18;33.95;97989.75;5052491;28;20187;-71
2022/05/17 09:45:39;;;;;;;5.10;3.73;;;;;;;28.81;33.52;97991.22;5052873;28;20453;-71
2022/05/17 09:48:07;;;;;;;4.07;3.50;;;;;;;28.88;34.29;97993.72;5052539;28;20422;-71
2022/05/17 09:53:44;;;;;;;4.37;3.23;;;;;;;28.62;34.30;97996.09;5044474;28;20517;-72
2022/05/17 09:56:10;;;;;;;6.50;3.10;;;;;;;28.50;34.61;97995.41;5052311;28;20450;-71
2022/05/17 09:58:40;;;;;;;4.27;3.20;;;;;;;28.61;35.64;98007.16;5052157;28;20464;-71
2022/05/17 10:01:15;;;;;;;6.33;4.20;;;;;;;28.66;35.87;97994.53;5052768;28;20183;-71
2022/05/17 10:03:44;;;;;;;7.10;3.30;;;;;;;28.61;35.41;98001.75;5058814;28;20432;-71
2022/05/17 10:06:29;;;;;;;6.50;2.80;;;;;;;28.65;33.88;97994.81;5050503;28;20465;-71
2022/05/17 10:09:06;;;;;;;5.43;2.80;;;;;;;28.54;33.60;97991.16;5052672;28;20924;-70
2022/05/17 10:11:46;;;;;;;3.97;2.90;;;;;;;28.18;33.42;98001.47;5045012;28;20437;-70
2022/05/17 10:14:20;;;;;;;9.03;3.20;;;;;;;28.22;33.61;97994.53;5050619;28;20441;-71
2022/05/17 10:17:04;;;;;;;6.00;2.70;;;;;;;28.58;33.72;97995.00;5051989;28;20547;-71
2022/05/17 10:19:38;;;;;;;7.47;3.07;;;;;;;28.45;34.07;97988.06;5051083;28;20864;-71
2022/05/17 10:22:12;;;;;;;4.00;3.40;;;;;;;28.51;33.61;97986.25;5050714;28;20437;-70
2022/05/17 10:25:09;;;;;;;5.70;2.93;;;;;;;28.77;33.46;97984.72;5050802;28;20924;-71
2022/05/17 10:27:45;;;;;;;6.07;2.80;;;;;;;29.03;33.85;97981.50;5051776;28;20437;-71
2022/05/17 10:30:15;;;;;;;6.10;3.13;;;;;;;29.04;33.81;97991.22;5050576;28;20619;-70
2022/05/17 10:32:46;;;;;;;4.17;3.07;;;;;;;29.05;33.93;97984.75;5058429;28;20920;-70
2022/05/17 10:35:17;;;;;;;4.70;3.20;;;;;;;29.06;33.38;97975.59;5053593;28;20955;-71
2022/05/17 10:37:59;;;;;;;3.53;3.00;;;;;;;29.05;34.15;97974.75;5051491;28;20967;-71
2022/05/17 10:40:33;;;;;;;4.77;3.00;;;;;;;29.23;33.76;97973.63;5054820;28;20430;-70
2022/05/17 10:43:00;;;;;;;7.43;2.97;;;;;;;29.37;33.19;97971.34;5050656;28;20848;-70
2022/05/17 10:45:35;;;;;;;7.20;3.07;;;;;;;29.32;33.37;97967.75;5058770;28;20531;-71
2022/05/17 10:48:23;;;;;;;3.43;3.13;;;;;;;29.18;34.04;97970.84;5051263;28;20428;-69
2022/05/17 10:51:34;;;;;;;10.00;4.00;;;;;;;28.98;33.52;97968.75;5051521;28;20414;-70
2022/05/17 10:54:17;;;;;;;3.27;2.80;;;;;;;28.91;33.58;97968.97;5057906;28;20516;-70
2022/05/17 10:57:07;;;;;;;4.57;3.00;;;;;;;28.88;32.82;97969.47;5045690;28;20433;-71
2022/05/17 10:59:53;;;;;;;5.20;3.30;;;;;;;28.78;33.49;97969.34;5044272;28;20465;-70
2022/05/17 11:02:56;;;;;;;6.00;3.07;;;;;;;29.04;33.26;97958.84;5058092;28;20421;-71
2022/05/17 11:05:39;;;;;;;4.07;2.57;;;;;;;29.38;32.97;97955.94;5048402;28;20433;-71
2022/05/17 11:08:52;;;;;;;4.77;3.10;;;;;;;29.75;31.57;97948.94;5051085;28;20464;-71
2022/05/17 11:11:24;;;;;;;7.00;2.10;;;;;;;29.94;29.60;97947.47;5047683;28;20441;-71
2022/05/17 11:14:13;;;;;;;2.93;2.10;;;;;;;30.13;29.45;97944.34;5050147;28;20435;-71
2022/05/17 11:17:14;;;;;;;5.10;2.83;;;;;;;30.17;29.10;97945.47;5049842;28;20457;-71
2022/05/17 11:19:49;;;;;;;6.40;2.70;;;;;;;30.50;29.52;97932.63;5047262;28;20788;-71
2022/05/17 11:22:53;;;;;;;3.83;2.90;;;;;;;30.56;29.76;97936.97;5049772;28;20535;-71
2022/05/17 11:25:24;;;;;;;3.13;2.73;;;;;;;30.53;29.22;97934.78;5057839;28;20493;-72
2022/05/17 11:28:12;;;;;;;10.13;3.33;;;;;;;30.46;29.27;97935.03;5050813;28;20429;-71
2022/05/17 11:30:49;;;;;;;5.73;2.33;;;;;;;30.77;28.85;97929.75;5049590;28;20490;-71
2022/05/17 11:33:24;;;;;;;6.37;2.93;;;;;;;30.69;28.22;97927.56;5058408;28;22065;-72
2022/05/17 11:35:54;;;;;;;5.93;3.00;;;;;;;31.03;29.10;97913.56;5061308;28;20460;-71
2022/05/17 11:38:51;;;;;;;4.90;2.63;;;;;;;31.40;29.59;97928.75;5050112;28;20469;-71
2022/05/17 11:41:34;;;;;;;6.13;3.10;;;;;;;31.29;28.44;97921.72;5052821;28;20437;-72
2022/05/17 11:44:08;;;;;;;3.27;2.50;;;;;;;30.89;28.09;97915.97;5058996;28;20447;-71
2022/05/17 11:46:47;;;;;;;5.80;2.30;;;;;;;30.72;27.74;97916.22;5042991;28;20452;-71
2022/05/17 11:49:15;;;;;;;4.40;2.50;;;;;;;30.86;28.72;97910.31;5050690;28;20429;-70
2022/05/17 11:51:59;;;;;;;4.37;2.90;;;;;;;30.69;28.52;97914.03;5051006;28;20430;-70
2022/05/17 11:54:46;;;;;;;9.53;3.30;;;;;;;30.40;29.07;97913.66;5050335;28;20429;-71
2022/05/17 11:57:20;;;;;;;6.60;2.60;;;;;;;30.02;29.17;97905.63;5050105;28;20496;-70